createdAt,value
2022-12-03T00:02:24.650Z,-0.80
2022-12-03T00:07:30.502Z,-0.70
2022-12-03T00:12:35.945Z,-0.70
2022-12-03T00:17:42.351Z,-0.80
2022-12-03T00:22:47.954Z,-0.80
2022-12-03T00:27:54.097Z,-0.70
2022-12-03T00:33:00.089Z,-0.90
2022-12-03T00:38:05.518Z,-1.00
2022-12-03T00:43:11.961Z,-0.90
2022-12-03T00:48:17.229Z,-0.80
2022-12-03T00:53:22.574Z,-0.80
2022-12-03T00:58:28.647Z,-0.80
2022-12-03T01:03:33.613Z,-0.90
2022-12-03T01:08:38.463Z,-0.80
2022-12-03T01:13:43.434Z,-0.80
2022-12-03T01:18:49.007Z,-0.90
2022-12-03T01:23:55.883Z,-0.90
2022-12-03T01:29:01.143Z,-1.00
2022-12-03T01:34:07.297Z,-0.90
2022-12-03T01:39:12.559Z,-0.90
2022-12-03T01:44:21.392Z,-0.90
2022-12-03T01:49:45.900Z,-0.90
2022-12-03T01:54:56.543Z,-0.90
2022-12-03T02:00:03.088Z,-0.80
2022-12-03T02:05:18.541Z,-1.00
2022-12-03T02:10:33.307Z,-1.20
2022-12-03T02:15:40.990Z,-1.10
2022-12-03T02:20:51.976Z,-1.00
2022-12-03T02:25:56.900Z,-0.90
2022-12-03T02:31:02.195Z,-0.90
2022-12-03T02:36:08.593Z,-0.80
2022-12-03T02:41:17.958Z,-0.70
2022-12-03T02:46:23.681Z,-0.60
2022-12-03T02:51:29.330Z,-0.60
2022-12-03T02:56:34.883Z,-0.60
2022-12-03T03:01:40.030Z,-0.70
2022-12-03T03:06:46.443Z,-0.60
2022-12-03T03:11:51.773Z,-0.70
2022-12-03T03:16:57.436Z,-0.60
2022-12-03T03:22:02.952Z,-0.80
2022-12-03T03:27:08.279Z,-0.80
2022-12-03T03:32:13.486Z,-0.90
2022-12-03T03:37:18.767Z,-0.90
2022-12-03T03:42:25.136Z,-0.80
2022-12-03T03:47:30.714Z,-0.90
2022-12-03T03:52:36.370Z,-1.00
2022-12-03T03:57:42.171Z,-0.90
2022-12-03T04:02:47.353Z,-1.00
2022-12-03T04:07:52.816Z,-0.90
2022-12-03T04:12:57.823Z,-0.80
2022-12-03T04:18:20.837Z,-0.70
2022-12-03T04:23:30.757Z,-0.60
2022-12-03T04:28:51.238Z,-0.60
2022-12-03T04:34:14.207Z,-0.70
2022-12-03T04:39:19.806Z,-0.90
2022-12-03T04:44:34.019Z,-0.90
2022-12-03T04:49:42.163Z,-0.70
2022-12-03T04:54:48.588Z,-0.70
2022-12-03T04:59:54.429Z,-0.70
2022-12-03T05:05:00.018Z,-0.70
2022-12-03T05:10:06.311Z,-0.80
2022-12-03T05:15:12.200Z,-0.80
2022-12-03T05:20:35.575Z,-0.50
2022-12-03T05:25:41.792Z,-0.60
2022-12-03T05:30:54.285Z,-0.60
2022-12-03T05:35:59.267Z,-0.80
2022-12-03T05:41:06.779Z,-0.70
2022-12-03T05:46:12.316Z,-0.80
2022-12-03T05:51:17.945Z,-0.60
2022-12-03T05:56:22.947Z,-0.80
2022-12-03T06:01:28.294Z,-1.00
2022-12-03T06:06:33.792Z,-0.80
2022-12-03T06:11:39.980Z,-0.70
2022-12-03T06:16:46.278Z,-0.60
2022-12-03T06:21:51.974Z,-0.50
2022-12-03T06:26:57.061Z,-0.50
2022-12-03T06:32:02.444Z,-0.50
2022-12-03T06:37:07.373Z,-0.40
2022-12-03T06:42:12.664Z,-0.40
2022-12-03T06:47:18.316Z,-0.40
2022-12-03T06:52:23.347Z,-0.30
2022-12-03T06:57:28.809Z,-0.20
2022-12-03T07:02:34.043Z,-0.20
2022-12-03T07:07:39.215Z,-0.10
2022-12-03T07:12:44.199Z,0.00
2022-12-03T07:17:49.596Z,-0.10
2022-12-03T07:22:54.942Z,-0.40
2022-12-03T07:27:59.835Z,-0.20
2022-12-03T07:33:05.557Z,-0.10
2022-12-03T07:38:11.381Z,0.00
2022-12-03T07:43:16.674Z,-0.30
2022-12-03T07:48:21.869Z,-0.30
2022-12-03T07:53:27.052Z,-0.30
2022-12-03T07:58:32.033Z,-0.30
2022-12-03T08:03:37.152Z,-0.60
2022-12-03T08:08:44.063Z,-0.70
2022-12-03T08:13:49.228Z,-0.60
2022-12-03T08:18:57.578Z,-0.60
2022-12-03T08:24:06.621Z,-0.70
2022-12-03T08:29:13.836Z,-0.80
2022-12-03T08:34:28.420Z,-0.70
2022-12-03T08:39:39.504Z,-0.50
2022-12-03T08:44:45.287Z,-0.60
2022-12-03T08:55:42.952Z,-0.40
2022-12-03T09:01:07.574Z,-0.50
2022-12-03T09:06:13.477Z,-0.40
2022-12-03T09:11:20.024Z,-0.30
2022-12-03T09:16:25.234Z,-0.30
2022-12-03T09:21:30.580Z,-0.20
2022-12-03T09:26:35.691Z,-0.20
2022-12-03T09:31:40.938Z,0.30
2022-12-03T09:36:46.389Z,0.10
2022-12-03T09:41:51.337Z,0.10
2022-12-03T09:46:58.595Z,0.20
2022-12-03T09:52:06.058Z,0.30
2022-12-03T09:57:13.937Z,0.50
2022-12-03T10:02:25.008Z,0.60
2022-12-03T10:07:29.976Z,0.60
2022-12-03T10:12:35.791Z,0.70
2022-12-03T10:17:41.694Z,0.70
2022-12-03T10:22:49.624Z,0.70
2022-12-03T10:28:04.701Z,0.90
2022-12-03T10:33:18.816Z,1.20
2022-12-03T10:38:23.447Z,1.30
2022-12-03T10:43:28.563Z,1.50
2022-12-03T10:48:34.817Z,1.50
2022-12-03T10:53:41.991Z,1.50
2022-12-03T10:58:47.448Z,1.50
2022-12-03T11:03:53.687Z,1.70
2022-12-03T11:09:03.831Z,1.90
2022-12-03T11:14:06.171Z,2.20
2022-12-03T11:19:17.913Z,2.60
2022-12-03T11:24:23.433Z,2.30
2022-12-03T11:29:54.567Z,2.70
2022-12-03T11:35:00.071Z,2.10
2022-12-03T11:40:23.679Z,2.10
2022-12-03T11:45:35.602Z,2.00
2022-12-03T11:50:52.188Z,1.80
2022-12-03T11:56:22.986Z,1.80
2022-12-03T12:01:40.590Z,2.00
2022-12-03T12:06:50.232Z,1.90
2022-12-03T12:11:54.371Z,1.80
2022-12-03T12:17:02.009Z,1.60
2022-12-03T12:22:28.503Z,1.60
2022-12-03T12:27:40.611Z,1.60
2022-12-03T12:33:31.262Z,1.50
2022-12-03T12:38:37.257Z,1.40
2022-12-03T12:43:48.275Z,1.40
2022-12-03T12:48:59.536Z,1.50
2022-12-03T12:54:01.948Z,1.50
2022-12-03T12:59:21.656Z,1.50
2022-12-03T13:04:28.338Z,1.60
2022-12-03T13:09:34.455Z,1.50
2022-12-03T13:15:16.585Z,1.50
2022-12-03T13:20:37.620Z,1.70
2022-12-03T13:26:12.870Z,1.70
2022-12-03T13:31:27.161Z,1.80
2022-12-03T13:36:38.212Z,1.70
2022-12-03T13:42:22.839Z,1.60
2022-12-03T13:48:04.255Z,1.60
2022-12-03T13:53:27.763Z,1.60
2022-12-03T13:58:33.655Z,1.60
2022-12-03T14:04:14.642Z,1.60
2022-12-03T14:09:37.613Z,1.60
2022-12-03T14:14:47.798Z,1.50
2022-12-03T14:19:54.542Z,1.50
2022-12-03T14:25:00.567Z,1.60
2022-12-03T14:30:06.513Z,1.50
2022-12-03T14:35:17.582Z,1.50
2022-12-03T14:40:28.751Z,1.50
2022-12-03T14:45:40.406Z,1.40
2022-12-03T14:50:47.241Z,1.30
2022-12-03T14:55:58.352Z,1.40
2022-12-03T15:01:03.804Z,1.40
2022-12-03T15:06:09.124Z,1.40
2022-12-03T15:11:14.081Z,1.20
2022-12-03T15:16:19.622Z,1.10
2022-12-03T15:21:28.120Z,1.20
2022-12-03T15:26:33.707Z,1.10
2022-12-03T15:31:39.290Z,1.10
2022-12-03T15:36:53.512Z,0.90
2022-12-03T15:42:00.063Z,0.80
2022-12-03T15:47:05.659Z,0.90
2022-12-03T16:02:59.568Z,0.80
2022-12-03T16:08:04.723Z,0.80
2022-12-03T16:13:14.453Z,0.80
2022-12-03T16:18:23.265Z,0.70
2022-12-03T16:23:36.330Z,0.70
2022-12-03T16:28:43.149Z,0.70
2022-12-03T16:33:50.285Z,0.70
2022-12-03T16:45:31.051Z,0.40
2022-12-03T16:50:38.560Z,0.40
2022-12-03T16:55:44.420Z,0.00
2022-12-03T17:00:50.207Z,0.10
2022-12-03T17:05:55.571Z,0.10
2022-12-03T17:11:03.103Z,0.10
2022-12-03T17:16:09.168Z,0.30
2022-12-03T17:21:14.419Z,0.20
2022-12-03T17:26:20.150Z,0.40
2022-12-03T17:31:26.403Z,0.30
2022-12-03T17:36:32.298Z,0.50
2022-12-03T17:41:37.537Z,0.50
2022-12-03T17:46:43.419Z,0.50
2022-12-03T17:51:48.556Z,0.40
2022-12-03T17:56:55.661Z,0.50
2022-12-03T18:02:01.902Z,0.50
2022-12-03T18:07:08.119Z,0.50
2022-12-03T18:12:14.229Z,0.50
2022-12-03T18:17:19.803Z,0.50
2022-12-03T18:22:25.799Z,0.50
2022-12-03T18:27:31.398Z,0.30
2022-12-03T18:32:37.445Z,0.40
2022-12-03T18:37:43.030Z,0.20
2022-12-03T18:42:49.582Z,0.40
2022-12-03T18:47:56.111Z,0.40
2022-12-03T18:53:02.029Z,0.40
2022-12-03T18:58:07.351Z,0.40
2022-12-03T19:03:14.193Z,0.40
2022-12-03T19:08:20.316Z,0.10
2022-12-03T19:13:28.868Z,0.20
2022-12-03T19:18:33.166Z,0.20
2022-12-03T19:23:38.639Z,0.20
2022-12-03T19:28:43.746Z,0.20
2022-12-03T19:33:50.765Z,0.20
2022-12-03T19:38:57.944Z,-0.20
2022-12-03T19:44:07.836Z,-0.10
2022-12-03T19:49:13.353Z,0.00
2022-12-03T19:54:19.354Z,-0.10
2022-12-03T19:59:25.681Z,-0.10
2022-12-03T20:04:31.360Z,-0.10
2022-12-03T20:09:36.547Z,0.00
2022-12-03T20:14:41.495Z,0.10
2022-12-03T20:19:46.956Z,-0.20
2022-12-03T20:24:52.861Z,-0.20
2022-12-03T20:29:57.806Z,-0.10
2022-12-03T20:35:03.860Z,0.00
2022-12-03T20:40:10.059Z,-0.10
2022-12-03T20:45:14.963Z,-0.10
2022-12-03T20:50:20.329Z,0.00
2022-12-03T20:55:25.539Z,-0.10
2022-12-03T21:00:31.158Z,0.00
2022-12-03T21:05:36.326Z,0.20
2022-12-03T21:10:46.410Z,0.20
2022-12-03T21:15:51.531Z,0.10
2022-12-03T21:20:56.606Z,0.20
2022-12-03T21:26:07.621Z,0.20
2022-12-03T21:31:16.134Z,0.10
2022-12-03T21:36:22.323Z,0.30
2022-12-03T21:41:27.795Z,0.10
2022-12-03T21:47:10.409Z,0.10
2022-12-03T21:51:39.778Z,0.00
2022-12-03T21:56:45.413Z,0.20
2022-12-03T22:01:50.971Z,0.20
2022-12-03T22:06:56.177Z,0.50
2022-12-03T22:12:01.318Z,0.70
2022-12-03T22:17:06.573Z,0.60
2022-12-03T22:22:12.682Z,1.10
2022-12-03T22:27:17.872Z,0.60
2022-12-03T22:32:23.973Z,0.80
2022-12-03T22:37:29.181Z,0.60
2022-12-03T22:42:34.199Z,0.50
2022-12-03T22:47:40.078Z,0.70
2022-12-03T22:52:45.465Z,0.60
2022-12-03T22:57:50.381Z,0.50
2022-12-03T23:02:55.650Z,0.70
2022-12-03T23:08:01.142Z,1.00
2022-12-03T23:13:07.335Z,2.40
2022-12-03T23:18:13.780Z,3.40
2022-12-03T23:23:21.134Z,3.00
2022-12-03T23:28:27.911Z,3.50
2022-12-03T23:33:38.182Z,3.80
2022-12-03T23:38:40.443Z,3.80
2022-12-03T23:43:45.883Z,3.70
2022-12-03T23:48:51.370Z,3.90
2022-12-03T23:53:57.447Z,3.80
2022-12-03T23:59:02.720Z,4.10
